sensor_id;sensor_type;location;lat;lon;timestamp;P1;durP1;ratioP1;P2;durP2;ratioP2
55467;SDS011;41332;42.702;23.200;2022-09-09T00:09:29;8.55;;;6.82;;
55467;SDS011;41332;42.702;23.200;2022-09-09T00:12:02;8.32;;;7.50;;
55467;SDS011;41332;42.702;23.200;2022-09-09T00:14:41;7.22;;;6.53;;
55467;SDS011;41332;42.702;23.200;2022-09-09T00:17:21;7.15;;;6.55;;
55467;SDS011;41332;42.702;23.200;2022-09-09T00:22:43;9.75;;;7.40;;
55467;SDS011;41332;42.702;23.200;2022-09-09T00:25:24;7.63;;;6.97;;
55467;SDS011;41332;42.702;23.200;2022-09-09T00:27:56;9.25;;;8.20;;
55467;SDS011;41332;42.702;23.200;2022-09-09T00:30:31;7.90;;;7.30;;
55467;SDS011;41332;42.702;23.200;2022-09-09T00:33:00;8.93;;;8.10;;
55467;SDS011;41332;42.702;23.200;2022-09-09T00:35:39;11.45;;;7.18;;
55467;SDS011;41332;42.702;23.200;2022-09-09T00:38:19;11.68;;;8.20;;
55467;SDS011;41332;42.702;23.200;2022-09-09T00:41:09;7.90;;;7.03;;
55467;SDS011;41332;42.702;23.200;2022-09-09T00:43:40;9.30;;;8.40;;
55467;SDS011;41332;42.702;23.200;2022-09-09T00:51:30;8.93;;;7.97;;
55467;SDS011;41332;42.702;23.200;2022-09-09T00:54:28;7.85;;;7.22;;
55467;SDS011;41332;42.702;23.200;2022-09-09T00:59:52;10.10;;;7.22;;
55467;SDS011;41332;42.702;23.200;2022-09-09T01:11:05;7.88;;;7.10;;
55467;SDS011;41332;42.702;23.200;2022-09-09T01:13:35;8.15;;;7.45;;
55467;SDS011;41332;42.702;23.200;2022-09-09T01:16:03;9.27;;;7.30;;
55467;SDS011;41332;42.702;23.200;2022-09-09T01:18:33;7.75;;;7.05;;
55467;SDS011;41332;42.702;23.200;2022-09-09T01:21:08;10.32;;;7.90;;
55467;SDS011;41332;42.702;23.200;2022-09-09T01:23:45;8.38;;;7.57;;
55467;SDS011;41332;42.702;23.200;2022-09-09T01:29:02;9.27;;;7.70;;
55467;SDS011;41332;42.702;23.200;2022-09-09T01:31:37;7.93;;;7.15;;
55467;SDS011;41332;42.702;23.200;2022-09-09T01:34:09;7.90;;;7.20;;
55467;SDS011;41332;42.702;23.200;2022-09-09T01:39:32;7.88;;;7.20;;
55467;SDS011;41332;42.702;23.200;2022-09-09T01:41:59;8.02;;;7.10;;
55467;SDS011;41332;42.702;23.200;2022-09-09T01:44:25;9.50;;;7.95;;
55467;SDS011;41332;42.702;23.200;2022-09-09T01:46:52;8.65;;;7.15;;
55467;SDS011;41332;42.702;23.200;2022-09-09T01:49:17;10.98;;;7.53;;
55467;SDS011;41332;42.702;23.200;2022-09-09T01:51:44;9.20;;;8.30;;
55467;SDS011;41332;42.702;23.200;2022-09-09T01:54:14;8.23;;;7.53;;
55467;SDS011;41332;42.702;23.200;2022-09-09T01:56:43;8.40;;;7.60;;
55467;SDS011;41332;42.702;23.200;2022-09-09T01:59:21;8.15;;;7.45;;
55467;SDS011;41332;42.702;23.200;2022-09-09T02:07:04;10.15;;;7.70;;
55467;SDS011;41332;42.702;23.200;2022-09-09T02:09:38;8.38;;;7.32;;
55467;SDS011;41332;42.702;23.200;2022-09-09T02:12:10;8.38;;;7.60;;
55467;SDS011;41332;42.702;23.200;2022-09-09T02:14:40;7.70;;;7.13;;
55467;SDS011;41332;42.702;23.200;2022-09-09T02:17:11;9.27;;;8.32;;
55467;SDS011;41332;42.702;23.200;2022-09-09T02:19:45;8.52;;;7.75;;
55467;SDS011;41332;42.702;23.200;2022-09-09T02:22:15;11.00;;;7.63;;
55467;SDS011;41332;42.702;23.200;2022-09-09T02:24:43;10.95;;;8.48;;
55467;SDS011;41332;42.702;23.200;2022-09-09T02:27:11;8.98;;;8.18;;
55467;SDS011;41332;42.702;23.200;2022-09-09T02:32:13;11.45;;;7.82;;
55467;SDS011;41332;42.702;23.200;2022-09-09T02:34:47;7.97;;;7.30;;
55467;SDS011;41332;42.702;23.200;2022-09-09T02:37:17;8.80;;;8.07;;
55467;SDS011;41332;42.702;23.200;2022-09-09T02:39:46;8.65;;;7.78;;
55467;SDS011;41332;42.702;23.200;2022-09-09T02:42:11;9.52;;;7.93;;
55467;SDS011;41332;42.702;23.200;2022-09-09T02:44:39;9.50;;;8.57;;
55467;SDS011;41332;42.702;23.200;2022-09-09T02:52:32;8.60;;;7.70;;
55467;SDS011;41332;42.702;23.200;2022-09-09T02:55:07;8.40;;;7.70;;
55467;SDS011;41332;42.702;23.200;2022-09-09T03:00:08;7.72;;;7.03;;
55467;SDS011;41332;42.702;23.200;2022-09-09T03:02:36;7.70;;;7.05;;
55467;SDS011;41332;42.702;23.200;2022-09-09T03:05:02;8.52;;;7.63;;
55467;SDS011;41332;42.702;23.200;2022-09-09T03:07:27;9.25;;;7.47;;
55467;SDS011;41332;42.702;23.200;2022-09-09T03:09:53;8.43;;;7.63;;
55467;SDS011;41332;42.702;23.200;2022-09-09T03:12:18;9.50;;;8.50;;
55467;SDS011;41332;42.702;23.200;2022-09-09T03:14:45;9.02;;;8.23;;
55467;SDS011;41332;42.702;23.200;2022-09-09T03:17:11;9.70;;;8.77;;
55467;SDS011;41332;42.702;23.200;2022-09-09T03:19:37;9.20;;;8.18;;
55467;SDS011;41332;42.702;23.200;2022-09-09T03:22:03;10.93;;;8.73;;
55467;SDS011;41332;42.702;23.200;2022-09-09T03:24:29;9.60;;;8.27;;
55467;SDS011;41332;42.702;23.200;2022-09-09T03:26:54;9.85;;;7.78;;
55467;SDS011;41332;42.702;23.200;2022-09-09T03:29:20;10.20;;;9.15;;
55467;SDS011;41332;42.702;23.200;2022-09-09T03:31:46;9.00;;;7.90;;
55467;SDS011;41332;42.702;23.200;2022-09-09T03:34:11;8.93;;;8.02;;
55467;SDS011;41332;42.702;23.200;2022-09-09T03:36:38;9.73;;;8.75;;
55467;SDS011;41332;42.702;23.200;2022-09-09T03:39:04;11.10;;;8.52;;
55467;SDS011;41332;42.702;23.200;2022-09-09T03:41:30;10.05;;;8.35;;
55467;SDS011;41332;42.702;23.200;2022-09-09T03:43:55;10.13;;;7.85;;
55467;SDS011;41332;42.702;23.200;2022-09-09T03:46:22;9.70;;;7.93;;
55467;SDS011;41332;42.702;23.200;2022-09-09T03:48:49;11.60;;;7.70;;
55467;SDS011;41332;42.702;23.200;2022-09-09T03:51:15;8.93;;;8.20;;
55467;SDS011;41332;42.702;23.200;2022-09-09T03:53:41;15.93;;;9.38;;
55467;SDS011;41332;42.702;23.200;2022-09-09T03:56:08;8.88;;;8.02;;
55467;SDS011;41332;42.702;23.200;2022-09-09T03:58:34;14.32;;;8.65;;
55467;SDS011;41332;42.702;23.200;2022-09-09T04:01:05;10.25;;;9.23;;
55467;SDS011;41332;42.702;23.200;2022-09-09T04:03:35;12.07;;;8.68;;
55467;SDS011;41332;42.702;23.200;2022-09-09T04:06:01;9.90;;;8.90;;
55467;SDS011;41332;42.702;23.200;2022-09-09T04:08:28;9.35;;;8.38;;
55467;SDS011;41332;42.702;23.200;2022-09-09T04:10:56;9.32;;;8.35;;
55467;SDS011;41332;42.702;23.200;2022-09-09T04:13:23;11.93;;;8.77;;
55467;SDS011;41332;42.702;23.200;2022-09-09T04:15:53;8.90;;;7.53;;
55467;SDS011;41332;42.702;23.200;2022-09-09T04:18:20;10.35;;;8.07;;
55467;SDS011;41332;42.702;23.200;2022-09-09T04:20:47;10.23;;;9.17;;
55467;SDS011;41332;42.702;23.200;2022-09-09T04:23:13;10.75;;;9.10;;
55467;SDS011;41332;42.702;23.200;2022-09-09T04:25:43;9.82;;;8.93;;
55467;SDS011;41332;42.702;23.200;2022-09-09T04:28:09;10.23;;;8.13;;
55467;SDS011;41332;42.702;23.200;2022-09-09T04:30:35;10.80;;;9.15;;
55467;SDS011;41332;42.702;23.200;2022-09-09T04:33:00;10.40;;;9.35;;
55467;SDS011;41332;42.702;23.200;2022-09-09T04:35:26;10.20;;;8.35;;
55467;SDS011;41332;42.702;23.200;2022-09-09T04:37:52;11.55;;;9.02;;
55467;SDS011;41332;42.702;23.200;2022-09-09T04:40:17;10.65;;;8.70;;
55467;SDS011;41332;42.702;23.200;2022-09-09T04:42:43;9.82;;;8.82;;
55467;SDS011;41332;42.702;23.200;2022-09-09T04:45:09;10.38;;;9.10;;
55467;SDS011;41332;42.702;23.200;2022-09-09T04:47:36;11.32;;;8.65;;
55467;SDS011;41332;42.702;23.200;2022-09-09T04:50:01;11.52;;;9.02;;
55467;SDS011;41332;42.702;23.200;2022-09-09T04:52:27;12.60;;;9.77;;
55467;SDS011;41332;42.702;23.200;2022-09-09T04:54:53;9.48;;;8.48;;
55467;SDS011;41332;42.702;23.200;2022-09-09T04:57:19;9.75;;;8.23;;
55467;SDS011;41332;42.702;23.200;2022-09-09T04:59:44;11.40;;;8.60;;
55467;SDS011;41332;42.702;23.200;2022-09-09T05:02:10;11.20;;;8.95;;
55467;SDS011;41332;42.702;23.200;2022-09-09T05:04:36;10.70;;;9.27;;
55467;SDS011;41332;42.702;23.200;2022-09-09T05:07:02;10.50;;;9.40;;
55467;SDS011;41332;42.702;23.200;2022-09-09T05:09:27;10.07;;;9.07;;
55467;SDS011;41332;42.702;23.200;2022-09-09T05:11:52;15.27;;;10.68;;
55467;SDS011;41332;42.702;23.200;2022-09-09T05:14:18;11.02;;;9.88;;
55467;SDS011;41332;42.702;23.200;2022-09-09T05:16:47;12.15;;;10.85;;
55467;SDS011;41332;42.702;23.200;2022-09-09T05:19:12;15.45;;;11.20;;
55467;SDS011;41332;42.702;23.200;2022-09-09T05:21:38;15.48;;;10.52;;
55467;SDS011;41332;42.702;23.200;2022-09-09T05:24:03;13.27;;;11.43;;
55467;SDS011;41332;42.702;23.200;2022-09-09T05:26:29;12.90;;;11.35;;
55467;SDS011;41332;42.702;23.200;2022-09-09T05:28:54;12.32;;;10.65;;
55467;SDS011;41332;42.702;23.200;2022-09-09T05:31:20;12.18;;;9.95;;
55467;SDS011;41332;42.702;23.200;2022-09-09T05:33:46;12.43;;;11.07;;
55467;SDS011;41332;42.702;23.200;2022-09-09T05:36:15;11.77;;;10.68;;
55467;SDS011;41332;42.702;23.200;2022-09-09T05:38:42;12.93;;;10.18;;
55467;SDS011;41332;42.702;23.200;2022-09-09T05:41:08;10.90;;;9.90;;
55467;SDS011;41332;42.702;23.200;2022-09-09T05:43:36;13.60;;;9.70;;
55467;SDS011;41332;42.702;23.200;2022-09-09T05:46:06;11.82;;;9.60;;
55467;SDS011;41332;42.702;23.200;2022-09-09T05:48:34;12.45;;;10.57;;
55467;SDS011;41332;42.702;23.200;2022-09-09T05:51:06;12.73;;;11.55;;
55467;SDS011;41332;42.702;23.200;2022-09-09T05:53:34;16.55;;;10.63;;
55467;SDS011;41332;42.702;23.200;2022-09-09T05:58:29;12.50;;;10.32;;
55467;SDS011;41332;42.702;23.200;2022-09-09T06:01:07;11.52;;;10.45;;
55467;SDS011;41332;42.702;23.200;2022-09-09T06:03:35;11.57;;;10.40;;
55467;SDS011;41332;42.702;23.200;2022-09-09T06:06:02;10.90;;;9.77;;
55467;SDS011;41332;42.702;23.200;2022-09-09T06:08:35;10.75;;;9.60;;
55467;SDS011;41332;42.702;23.200;2022-09-09T06:11:15;10.73;;;9.60;;
55467;SDS011;41332;42.702;23.200;2022-09-09T06:13:42;10.73;;;9.70;;
55467;SDS011;41332;42.702;23.200;2022-09-09T06:16:12;9.55;;;8.65;;
55467;SDS011;41332;42.702;23.200;2022-09-09T06:18:39;10.13;;;9.18;;
55467;SDS011;41332;42.702;23.200;2022-09-09T06:21:06;9.57;;;8.80;;
55467;SDS011;41332;42.702;23.200;2022-09-09T06:23:34;13.65;;;9.00;;
55467;SDS011;41332;42.702;23.200;2022-09-09T06:26:42;9.25;;;8.40;;
55467;SDS011;41332;42.702;23.200;2022-09-09T06:28:51;11.70;;;8.73;;
55467;SDS011;41332;42.702;23.200;2022-09-09T06:33:47;9.40;;;8.40;;
55467;SDS011;41332;42.702;23.200;2022-09-09T06:38:44;12.98;;;8.68;;
55467;SDS011;41332;42.702;23.200;2022-09-09T06:41:11;14.88;;;8.07;;
55467;SDS011;41332;42.702;23.200;2022-09-09T06:43:38;10.50;;;9.18;;
55467;SDS011;41332;42.702;23.200;2022-09-09T06:46:11;11.10;;;9.32;;
55467;SDS011;41332;42.702;23.200;2022-09-09T06:48:41;15.20;;;9.15;;
55467;SDS011;41332;42.702;23.200;2022-09-09T06:53:38;9.15;;;8.25;;
55467;SDS011;41332;42.702;23.200;2022-09-09T06:56:19;12.23;;;8.43;;
55467;SDS011;41332;42.702;23.200;2022-09-09T06:58:46;12.70;;;8.52;;
55467;SDS011;41332;42.702;23.200;2022-09-09T07:03:45;9.18;;;7.60;;
55467;SDS011;41332;42.702;23.200;2022-09-09T07:06:16;10.05;;;8.38;;
55467;SDS011;41332;42.702;23.200;2022-09-09T07:08:53;10.75;;;8.43;;
55467;SDS011;41332;42.702;23.200;2022-09-09T07:11:20;9.02;;;8.13;;
55467;SDS011;41332;42.702;23.200;2022-09-09T07:13:47;10.90;;;7.75;;
55467;SDS011;41332;42.702;23.200;2022-09-09T07:16:15;7.43;;;6.43;;
55467;SDS011;41332;42.702;23.200;2022-09-09T07:18:42;7.78;;;7.15;;
55467;SDS011;41332;42.702;23.200;2022-09-09T07:21:09;8.70;;;6.90;;
55467;SDS011;41332;42.702;23.200;2022-09-09T07:23:36;8.77;;;8.07;;
55467;SDS011;41332;42.702;23.200;2022-09-09T07:26:07;8.10;;;7.28;;
55467;SDS011;41332;42.702;23.200;2022-09-09T07:28:40;9.85;;;6.50;;
55467;SDS011;41332;42.702;23.200;2022-09-09T07:31:07;7.25;;;6.65;;
55467;SDS011;41332;42.702;23.200;2022-09-09T07:33:38;10.00;;;7.05;;
55467;SDS011;41332;42.702;23.200;2022-09-09T07:36:08;13.30;;;7.85;;
55467;SDS011;41332;42.702;23.200;2022-09-09T07:38:41;9.65;;;7.18;;
55467;SDS011;41332;42.702;23.200;2022-09-09T07:41:10;6.25;;;5.72;;
55467;SDS011;41332;42.702;23.200;2022-09-09T07:43:38;7.00;;;6.30;;
55467;SDS011;41332;42.702;23.200;2022-09-09T07:46:05;10.30;;;6.68;;
55467;SDS011;41332;42.702;23.200;2022-09-09T07:48:31;8.23;;;7.60;;
55467;SDS011;41332;42.702;23.200;2022-09-09T07:51:14;10.27;;;7.28;;
55467;SDS011;41332;42.702;23.200;2022-09-09T07:53:45;8.05;;;7.20;;
55467;SDS011;41332;42.702;23.200;2022-09-09T07:56:15;7.03;;;6.43;;
55467;SDS011;41332;42.702;23.200;2022-09-09T07:58:44;8.02;;;7.40;;
55467;SDS011;41332;42.702;23.200;2022-09-09T08:01:17;9.13;;;8.07;;
55467;SDS011;41332;42.702;23.200;2022-09-09T08:06:18;13.70;;;9.35;;
55467;SDS011;41332;42.702;23.200;2022-09-09T08:08:43;20.55;;;10.85;;
55467;SDS011;41332;42.702;23.200;2022-09-09T08:11:13;13.15;;;9.98;;
55467;SDS011;41332;42.702;23.200;2022-09-09T08:13:40;11.88;;;9.23;;
55467;SDS011;41332;42.702;23.200;2022-09-09T08:28:12;13.18;;;9.90;;
55467;SDS011;41332;42.702;23.200;2022-09-09T08:30:37;16.47;;;10.73;;
55467;SDS011;41332;42.702;23.200;2022-09-09T08:33:03;9.50;;;8.47;;
55467;SDS011;41332;42.702;23.200;2022-09-09T08:35:28;11.77;;;9.07;;
55467;SDS011;41332;42.702;23.200;2022-09-09T08:37:57;11.63;;;8.70;;
55467;SDS011;41332;42.702;23.200;2022-09-09T08:40:24;10.43;;;9.00;;
55467;SDS011;41332;42.702;23.200;2022-09-09T08:42:54;10.30;;;8.40;;
55467;SDS011;41332;42.702;23.200;2022-09-09T08:51:07;15.93;;;9.52;;
55467;SDS011;41332;42.702;23.200;2022-09-09T08:54:07;10.13;;;8.35;;
55467;SDS011;41332;42.702;23.200;2022-09-09T08:56:27;9.35;;;8.40;;
55467;SDS011;41332;42.702;23.200;2022-09-09T08:58:56;20.88;;;9.07;;
55467;SDS011;41332;42.702;23.200;2022-09-09T09:01:37;10.10;;;8.50;;
55467;SDS011;41332;42.702;23.200;2022-09-09T09:07:42;10.02;;;7.15;;
55467;SDS011;41332;42.702;23.200;2022-09-09T09:15:57;12.88;;;7.38;;
55467;SDS011;41332;42.702;23.200;2022-09-09T09:18:27;11.50;;;8.02;;
55467;SDS011;41332;42.702;23.200;2022-09-09T09:24:00;7.82;;;6.97;;
55467;SDS011;41332;42.702;23.200;2022-09-09T09:26:33;10.13;;;7.72;;
55467;SDS011;41332;42.702;23.200;2022-09-09T09:29:01;11.88;;;7.60;;
55467;SDS011;41332;42.702;23.200;2022-09-09T09:31:34;8.57;;;7.78;;
55467;SDS011;41332;42.702;23.200;2022-09-09T09:34:00;10.70;;;7.33;;
55467;SDS011;41332;42.702;23.200;2022-09-09T09:36:33;9.93;;;6.83;;
55467;SDS011;41332;42.702;23.200;2022-09-09T09:39:03;7.95;;;7.05;;
55467;SDS011;41332;42.702;23.200;2022-09-09T09:41:40;8.00;;;7.30;;
55467;SDS011;41332;42.702;23.200;2022-09-09T09:44:25;8.23;;;7.32;;
55467;SDS011;41332;42.702;23.200;2022-09-09T09:46:52;7.80;;;6.00;;
55467;SDS011;41332;42.702;23.200;2022-09-09T09:49:18;9.82;;;6.80;;
55467;SDS011;41332;42.702;23.200;2022-09-09T09:51:43;9.30;;;8.37;;
55467;SDS011;41332;42.702;23.200;2022-09-09T09:56:38;7.53;;;6.40;;
55467;SDS011;41332;42.702;23.200;2022-09-09T09:59:05;11.63;;;6.68;;
55467;SDS011;41332;42.702;23.200;2022-09-09T10:01:38;8.73;;;7.50;;
55467;SDS011;41332;42.702;23.200;2022-09-09T10:04:17;7.05;;;6.35;;
55467;SDS011;41332;42.702;23.200;2022-09-09T10:06:46;12.18;;;6.40;;
55467;SDS011;41332;42.702;23.200;2022-09-09T10:09:25;6.80;;;6.10;;
55467;SDS011;41332;42.702;23.200;2022-09-09T10:22:39;7.45;;;6.85;;
55467;SDS011;41332;42.702;23.200;2022-09-09T10:30:47;11.52;;;6.93;;
55467;SDS011;41332;42.702;23.200;2022-09-09T10:33:50;8.90;;;6.63;;
55467;SDS011;41332;42.702;23.200;2022-09-09T10:36:21;11.63;;;7.35;;
55467;SDS011;41332;42.702;23.200;2022-09-09T10:39:02;11.18;;;7.40;;
55467;SDS011;41332;42.702;23.200;2022-09-09T10:52:52;8.25;;;7.30;;
55467;SDS011;41332;42.702;23.200;2022-09-09T10:55:24;9.88;;;7.25;;
55467;SDS011;41332;42.702;23.200;2022-09-09T10:57:55;12.65;;;7.03;;
55467;SDS011;41332;42.702;23.200;2022-09-09T11:00:24;8.82;;;6.15;;
55467;SDS011;41332;42.702;23.200;2022-09-09T11:02:56;8.13;;;7.13;;
55467;SDS011;41332;42.702;23.200;2022-09-09T11:05:27;8.55;;;7.75;;
55467;SDS011;41332;42.702;23.200;2022-09-09T11:08:01;12.02;;;6.82;;
55467;SDS011;41332;42.702;23.200;2022-09-09T11:16:33;10.60;;;6.90;;
55467;SDS011;41332;42.702;23.200;2022-09-09T11:21:49;6.82;;;6.03;;
55467;SDS011;41332;42.702;23.200;2022-09-09T11:26:47;7.18;;;6.55;;
55467;SDS011;41332;42.702;23.200;2022-09-09T11:40:27;7.90;;;7.35;;
55467;SDS011;41332;42.702;23.200;2022-09-09T11:43:01;7.35;;;6.70;;
55467;SDS011;41332;42.702;23.200;2022-09-09T11:45:30;8.60;;;7.38;;
55467;SDS011;41332;42.702;23.200;2022-09-09T11:47:59;7.47;;;6.80;;
55467;SDS011;41332;42.702;23.200;2022-09-09T11:53:02;8.40;;;7.70;;
55467;SDS011;41332;42.702;23.200;2022-09-09T11:55:42;8.55;;;6.85;;
55467;SDS011;41332;42.702;23.200;2022-09-09T12:00:43;7.65;;;6.93;;
55467;SDS011;41332;42.702;23.200;2022-09-09T12:05:57;8.48;;;7.45;;
55467;SDS011;41332;42.702;23.200;2022-09-09T12:08:28;11.90;;;6.72;;
55467;SDS011;41332;42.702;23.200;2022-09-09T12:10:55;9.00;;;7.32;;
55467;SDS011;41332;42.702;23.200;2022-09-09T12:13:25;10.10;;;6.60;;
55467;SDS011;41332;42.702;23.200;2022-09-09T12:15:53;7.22;;;6.50;;
55467;SDS011;41332;42.702;23.200;2022-09-09T12:32:10;12.32;;;7.55;;
55467;SDS011;41332;42.702;23.200;2022-09-09T12:39:40;10.32;;;6.10;;
55467;SDS011;41332;42.702;23.200;2022-09-09T12:42:20;7.53;;;6.32;;
55467;SDS011;41332;42.702;23.200;2022-09-09T12:44:50;9.20;;;6.40;;
55467;SDS011;41332;42.702;23.200;2022-09-09T12:47:17;7.07;;;6.38;;
55467;SDS011;41332;42.702;23.200;2022-09-09T12:49:49;7.15;;;6.15;;
55467;SDS011;41332;42.702;23.200;2022-09-09T12:54:44;5.90;;;5.33;;
55467;SDS011;41332;42.702;23.200;2022-09-09T12:57:12;14.20;;;6.50;;
55467;SDS011;41332;42.702;23.200;2022-09-09T12:59:39;8.43;;;5.13;;
55467;SDS011;41332;42.702;23.200;2022-09-09T13:02:11;6.60;;;5.97;;
55467;SDS011;41332;42.702;23.200;2022-09-09T13:04:51;6.05;;;5.35;;
55467;SDS011;41332;42.702;23.200;2022-09-09T13:07:18;7.95;;;5.07;;
55467;SDS011;41332;42.702;23.200;2022-09-09T13:09:45;9.40;;;6.03;;
55467;SDS011;41332;42.702;23.200;2022-09-09T13:12:16;5.82;;;5.22;;
55467;SDS011;41332;42.702;23.200;2022-09-09T13:14:44;9.18;;;5.45;;
55467;SDS011;41332;42.702;23.200;2022-09-09T13:17:48;8.63;;;5.25;;
55467;SDS011;41332;42.702;23.200;2022-09-09T13:20:06;11.70;;;5.25;;
55467;SDS011;41332;42.702;23.200;2022-09-09T13:22:40;7.32;;;4.65;;
55467;SDS011;41332;42.702;23.200;2022-09-09T13:27:35;5.65;;;5.15;;
55467;SDS011;41332;42.702;23.200;2022-09-09T13:30:26;5.82;;;5.32;;
55467;SDS011;41332;42.702;23.200;2022-09-09T13:35:34;6.28;;;5.68;;
55467;SDS011;41332;42.702;23.200;2022-09-09T13:38:13;7.45;;;5.70;;
55467;SDS011;41332;42.702;23.200;2022-09-09T13:40:39;8.52;;;5.78;;
55467;SDS011;41332;42.702;23.200;2022-09-09T13:43:05;6.23;;;5.23;;
55467;SDS011;41332;42.702;23.200;2022-09-09T13:45:51;7.25;;;5.63;;
55467;SDS011;41332;42.702;23.200;2022-09-09T13:48:18;10.63;;;6.00;;
55467;SDS011;41332;42.702;23.200;2022-09-09T13:50:53;7.53;;;6.07;;
55467;SDS011;41332;42.702;23.200;2022-09-09T13:53:23;9.35;;;5.45;;
55467;SDS011;41332;42.702;23.200;2022-09-09T13:55:48;6.17;;;5.37;;
55467;SDS011;41332;42.702;23.200;2022-09-09T13:58:16;6.22;;;5.65;;
55467;SDS011;41332;42.702;23.200;2022-09-09T14:00:44;7.00;;;4.65;;
55467;SDS011;41332;42.702;23.200;2022-09-09T14:03:10;10.15;;;4.78;;
55467;SDS011;41332;42.702;23.200;2022-09-09T14:05:36;7.67;;;3.97;;
55467;SDS011;41332;42.702;23.200;2022-09-09T14:08:05;8.93;;;4.57;;
55467;SDS011;41332;42.702;23.200;2022-09-09T14:10:34;3.58;;;3.20;;
55467;SDS011;41332;42.702;23.200;2022-09-09T14:13:02;6.68;;;4.68;;
55467;SDS011;41332;42.702;23.200;2022-09-09T14:15:28;4.47;;;4.10;;
55467;SDS011;41332;42.702;23.200;2022-09-09T14:17:54;6.93;;;4.67;;
55467;SDS011;41332;42.702;23.200;2022-09-09T14:20:19;7.07;;;5.10;;
55467;SDS011;41332;42.702;23.200;2022-09-09T14:22:45;7.77;;;6.33;;
55467;SDS011;41332;42.702;23.200;2022-09-09T14:25:11;6.23;;;4.63;;
55467;SDS011;41332;42.702;23.200;2022-09-09T14:27:38;5.63;;;5.03;;
55467;SDS011;41332;42.702;23.200;2022-09-09T14:30:04;10.00;;;5.57;;
55467;SDS011;41332;42.702;23.200;2022-09-09T14:32:30;6.43;;;5.82;;
55467;SDS011;41332;42.702;23.200;2022-09-09T14:34:56;10.20;;;4.73;;
55467;SDS011;41332;42.702;23.200;2022-09-09T14:37:21;6.10;;;4.33;;
55467;SDS011;41332;42.702;23.200;2022-09-09T14:39:47;6.83;;;5.13;;
55467;SDS011;41332;42.702;23.200;2022-09-09T14:42:15;6.60;;;4.82;;
55467;SDS011;41332;42.702;23.200;2022-09-09T14:44:41;6.93;;;4.57;;
55467;SDS011;41332;42.702;23.200;2022-09-09T14:47:06;7.50;;;4.17;;
55467;SDS011;41332;42.702;23.200;2022-09-09T14:49:33;7.55;;;4.35;;
55467;SDS011;41332;42.702;23.200;2022-09-09T14:54:25;5.55;;;4.70;;
55467;SDS011;41332;42.702;23.200;2022-09-09T14:56:50;8.10;;;4.70;;
55467;SDS011;41332;42.702;23.200;2022-09-09T14:59:16;6.33;;;4.63;;
55467;SDS011;41332;42.702;23.200;2022-09-09T15:01:41;14.83;;;5.60;;
55467;SDS011;41332;42.702;23.200;2022-09-09T15:04:07;7.20;;;5.43;;
55467;SDS011;41332;42.702;23.200;2022-09-09T15:06:33;8.00;;;5.60;;
55467;SDS011;41332;42.702;23.200;2022-09-09T15:09:02;7.18;;;5.53;;
55467;SDS011;41332;42.702;23.200;2022-09-09T15:11:28;6.03;;;5.03;;
55467;SDS011;41332;42.702;23.200;2022-09-09T15:13:55;8.57;;;5.30;;
55467;SDS011;41332;42.702;23.200;2022-09-09T15:16:26;8.10;;;5.43;;
55467;SDS011;41332;42.702;23.200;2022-09-09T15:18:54;6.90;;;4.95;;
55467;SDS011;41332;42.702;23.200;2022-09-09T15:21:23;6.18;;;5.03;;
55467;SDS011;41332;42.702;23.200;2022-09-09T15:23:50;5.45;;;4.97;;
55467;SDS011;41332;42.702;23.200;2022-09-09T15:26:16;6.30;;;5.55;;
55467;SDS011;41332;42.702;23.200;2022-09-09T15:28:43;11.68;;;5.10;;
55467;SDS011;41332;42.702;23.200;2022-09-09T15:33:48;6.90;;;5.20;;
55467;SDS011;41332;42.702;23.200;2022-09-09T15:36:21;9.10;;;5.30;;
55467;SDS011;41332;42.702;23.200;2022-09-09T15:38:48;6.40;;;5.45;;
55467;SDS011;41332;42.702;23.200;2022-09-09T15:41:14;8.07;;;5.67;;
55467;SDS011;41332;42.702;23.200;2022-09-09T15:43:47;7.72;;;6.68;;
55467;SDS011;41332;42.702;23.200;2022-09-09T15:48:44;8.52;;;7.13;;
55467;SDS011;41332;42.702;23.200;2022-09-09T15:51:10;9.35;;;4.97;;
55467;SDS011;41332;42.702;23.200;2022-09-09T15:53:36;8.85;;;6.25;;
55467;SDS011;41332;42.702;23.200;2022-09-09T15:56:04;6.60;;;5.32;;
55467;SDS011;41332;42.702;23.200;2022-09-09T15:58:31;6.03;;;5.05;;
55467;SDS011;41332;42.702;23.200;2022-09-09T16:01:03;8.60;;;5.40;;
55467;SDS011;41332;42.702;23.200;2022-09-09T16:03:37;10.48;;;6.38;;
55467;SDS011;41332;42.702;23.200;2022-09-09T16:06:04;7.55;;;5.80;;
55467;SDS011;41332;42.702;23.200;2022-09-09T16:08:38;7.15;;;5.90;;
55467;SDS011;41332;42.702;23.200;2022-09-09T16:11:08;9.38;;;5.32;;
55467;SDS011;41332;42.702;23.200;2022-09-09T16:13:37;8.02;;;7.00;;
55467;SDS011;41332;42.702;23.200;2022-09-09T16:16:04;6.63;;;6.07;;
55467;SDS011;41332;42.702;23.200;2022-09-09T16:18:37;8.95;;;5.80;;
55467;SDS011;41332;42.702;23.200;2022-09-09T16:21:08;6.80;;;6.10;;
55467;SDS011;41332;42.702;23.200;2022-09-09T16:23:38;9.23;;;5.93;;
55467;SDS011;41332;42.702;23.200;2022-09-09T16:26:04;13.20;;;5.32;;
55467;SDS011;41332;42.702;23.200;2022-09-09T16:28:30;8.07;;;6.30;;
55467;SDS011;41332;42.702;23.200;2022-09-09T16:30:56;17.13;;;7.70;;
55467;SDS011;41332;42.702;23.200;2022-09-09T16:33:23;9.65;;;5.97;;
55467;SDS011;41332;42.702;23.200;2022-09-09T16:35:51;9.70;;;7.22;;
55467;SDS011;41332;42.702;23.200;2022-09-09T16:38:17;16.48;;;9.32;;
55467;SDS011;41332;42.702;23.200;2022-09-09T16:40:42;14.43;;;6.60;;
55467;SDS011;41332;42.702;23.200;2022-09-09T16:43:08;8.65;;;5.57;;
55467;SDS011;41332;42.702;23.200;2022-09-09T16:45:41;7.65;;;6.07;;
55467;SDS011;41332;42.702;23.200;2022-09-09T16:48:07;6.90;;;6.22;;
55467;SDS011;41332;42.702;23.200;2022-09-09T16:50:33;7.23;;;5.97;;
55467;SDS011;41332;42.702;23.200;2022-09-09T16:52:58;7.40;;;6.13;;
55467;SDS011;41332;42.702;23.200;2022-09-09T16:55:24;11.27;;;6.77;;
55467;SDS011;41332;42.702;23.200;2022-09-09T16:57:51;11.32;;;6.63;;
55467;SDS011;41332;42.702;23.200;2022-09-09T17:00:16;8.37;;;6.77;;
55467;SDS011;41332;42.702;23.200;2022-09-09T17:02:42;14.18;;;6.53;;
55467;SDS011;41332;42.702;23.200;2022-09-09T17:05:10;7.80;;;6.75;;
55467;SDS011;41332;42.702;23.200;2022-09-09T17:07:37;5.88;;;5.45;;
55467;SDS011;41332;42.702;23.200;2022-09-09T17:10:03;6.97;;;6.45;;
55467;SDS011;41332;42.702;23.200;2022-09-09T17:12:29;11.50;;;6.72;;
55467;SDS011;41332;42.702;23.200;2022-09-09T17:14:58;12.88;;;7.22;;
55467;SDS011;41332;42.702;23.200;2022-09-09T17:17:24;8.85;;;6.70;;
55467;SDS011;41332;42.702;23.200;2022-09-09T17:22:16;10.10;;;6.78;;
55467;SDS011;41332;42.702;23.200;2022-09-09T17:24:43;13.27;;;7.87;;
55467;SDS011;41332;42.702;23.200;2022-09-09T17:27:09;8.65;;;7.75;;
55467;SDS011;41332;42.702;23.200;2022-09-09T17:29:34;11.73;;;8.48;;
55467;SDS011;41332;42.702;23.200;2022-09-09T17:32:01;9.57;;;6.83;;
55467;SDS011;41332;42.702;23.200;2022-09-09T17:34:27;10.52;;;9.32;;
55467;SDS011;41332;42.702;23.200;2022-09-09T17:36:52;17.15;;;9.00;;
55467;SDS011;41332;42.702;23.200;2022-09-09T17:39:18;13.77;;;9.38;;
55467;SDS011;41332;42.702;23.200;2022-09-09T17:41:43;11.02;;;8.25;;
55467;SDS011;41332;42.702;23.200;2022-09-09T17:44:08;13.10;;;7.13;;
55467;SDS011;41332;42.702;23.200;2022-09-09T17:46:35;9.98;;;7.30;;
55467;SDS011;41332;42.702;23.200;2022-09-09T17:49:03;12.77;;;8.30;;
55467;SDS011;41332;42.702;23.200;2022-09-09T17:51:31;16.15;;;9.50;;